Flight Track Log - Related Links

Times and Time Zones

All times are in EDT time to prevent confusion due to time zone crossing. See the UAL407 flight status page for this flight to view local times or setup timezone preferences in your user account.


Time Position Orientation Groundspeed Altitude Reporting Facility
EDT Latitude Longitude Course Direction KTS MPH feet Rate Location/Type
Thu 10:18:09 PM 42.0167 -87.9333 346° North 184 212 2,400  Level Chicago TRACON
Thu 10:19:15 PM 42.1000 -87.9000 17° North 252 290 4,000 1,311 Climbing Chicago TRACON
Thu 10:20:08 PM 42.1536 -87.8811 15° North 274 315 5,000 1,983 Climbing Chicago Center
Thu 10:21:10 PM 42.2275 -87.8475 19° North 281 323 7,800 2,780 Climbing Chicago Center
Thu 10:22:11 PM 42.3083 -87.8428 North 299 344 10,700 2,244 Climbing Chicago Center
Thu 10:23:00 PM 42.5917 -88.1083 346° North  Level FlightAware Approximate
Thu 10:23:13 PM 42.4006 -87.8764 345° North 322 371 12,400  Level Chicago Center
Thu 10:24:14 PM 42.4675 -87.9781 312° West 371 427 13,600 1,672 Climbing Chicago Center
Thu 10:25:15 PM 42.5319 -88.0956 307° West 384 442 15,800 2,000 Climbing Chicago Center
Thu 10:26:17 PM 42.5961 -88.2158 306° West 391 450 17,700 1,707 Climbing Chicago Center
Thu 10:27:18 PM 42.6633 -88.3411 306° West 405 466 19,300 1,672 Climbing Chicago Center
Thu 10:28:19 PM 42.7311 -88.4681 306° West 411 473 21,100 1,659 Climbing Chicago Center
Thu 10:29:21 PM 42.7992 -88.5919 307° West 410 472 22,700 1,317 Climbing Chicago Center
Thu 10:30:22 PM 42.8672 -88.7217 306° West 415 478 23,800 1,328 Climbing Chicago Center
Thu 10:31:23 PM 42.9489 -88.8778 306° West 427 491 25,400 1,268 Climbing Chicago Center
Thu 10:32:25 PM 43.0194 -89.0117 306° West 431 496 26,400 878 Climbing Chicago Center
Thu 10:33:26 PM 43.0911 -89.1492 306° West 439 505 27,200 878 Climbing Chicago Center
Thu 10:34:28 PM 43.1642 -89.2869 306° West 443 510 28,200 1,073 Climbing Chicago Center
Thu 10:35:29 PM 43.2358 -89.4253 305° West 444 511 29,400 1,230 Climbing Chicago Center
Thu 10:36:30 PM 43.3058 -89.5625 305° West 440 506 30,700 1,122 Climbing Chicago Center
Thu 10:37:32 PM 43.3736 -89.6953 305° West 427 491 31,700 634 Climbing Chicago Center
Thu 10:38:33 PM 43.4422 -89.8297 305° West 427 491 32,000 155 Climbing Chicago Center
Thu 10:39:28 PM 43.4992 -89.9406 305° West 425 489 32,000  Level Minneapolis Center
Thu 10:40:30 PM 43.5811 -90.0986 306° West 431 496 32,000  Level Minneapolis Center
Thu 10:41:31 PM 43.6519 -90.2403 305° West 430 495 32,000  Level Minneapolis Center
Thu 10:42:32 PM 43.7186 -90.3744 305° West 429 494 32,000  Level Minneapolis Center
Thu 10:43:33 PM 43.7869 -90.5064 306° West 434 499 32,000 98 Level Minneapolis Center
Thu 10:44:35 PM 43.8547 -90.6450 304° West 433 498 32,200 293 Climbing Minneapolis Center
Thu 10:45:36 PM 43.9211 -90.7817 304° West 429 494 32,600 443 Climbing Minneapolis Center
Thu 10:46:37 PM 43.9867 -90.9125 305° West 425 489 33,100 639 Climbing Minneapolis Center
Thu 10:47:38 PM 44.0517 -91.0450 304° West 421 484 33,900 1,024 Climbing Minneapolis Center
Thu 10:48:40 PM 44.1275 -91.1992 304° West 412 474 35,200 1,024 Climbing Minneapolis Center
Thu 10:49:41 PM 44.1911 -91.3306 304° West 401 461 36,000 393 Climbing Minneapolis Center
Thu 10:50:42 PM 44.2528 -91.4553 305° West 395 455 36,000  Level Minneapolis Center
Thu 10:51:43 PM 44.3139 -91.5822 304° West 395 455 36,000  Level Minneapolis Center
Thu 10:52:44 PM 44.3728 -91.7117 303° West 397 457 36,000  Level Minneapolis Center
Thu 10:53:45 PM 44.4208 -91.8147 303° West 397 457 36,000  Level Minneapolis Center
Thu 10:54:47 PM 44.4967 -91.9703 304° West 402 463 36,000  Level Minneapolis Center
Thu 10:55:48 PM 44.5589 -92.1000 304° West 404 465 36,000  Level Minneapolis Center
Thu 10:56:49 PM 44.6197 -92.2292 304° West 401 461 36,000  Level Minneapolis Center
Thu 10:57:51 PM 44.6914 -92.3875 303° West 401 461 36,000  Level Minneapolis Center
Thu 10:58:52 PM 44.7142 -92.5381 282° West 397 457 36,000  Level Minneapolis Center
Thu 10:59:53 PM 44.7383 -92.6883 283° West 395 455 36,000  Level Minneapolis Center
Thu 11:00:55 PM 44.7614 -92.8381 282° West 395 455 36,000  Level Minneapolis Center
Thu 11:01:56 PM 44.7844 -92.9869 282° West 392 451 36,000  Level Minneapolis Center
Thu 11:02:57 PM 44.8094 -93.1475 282° West 396 456 36,000  Level Minneapolis Center
Thu 11:03:58 PM 44.8325 -93.2992 282° West 399 459 36,000  Level Minneapolis Center
Thu 11:05:00 PM 44.8561 -93.4622 282° West 399 459 36,000  Level Minneapolis Center
Thu 11:06:01 PM 44.8786 -93.6153 282° West 401 461 36,000  Level Minneapolis Center
Thu 11:07:02 PM 44.9000 -93.7675 281° West 401 461 36,000  Level Minneapolis Center
Thu 11:08:04 PM 44.9217 -93.9208 281° West 400 460 36,000  Level Minneapolis Center
Thu 11:09:05 PM 44.9394 -94.0450 281° West 403 464 36,000  Level Minneapolis Center
Thu 11:10:06 PM 44.9658 -94.2339 281° West 408 470 36,000  Level Minneapolis Center
Thu 11:11:08 PM 44.9928 -94.4214 282° West 410 472 36,000  Level Minneapolis Center
Thu 11:12:09 PM 45.0142 -94.5769 281° West 408 470 36,000  Level Minneapolis Center
Thu 11:13:10 PM 45.0350 -94.7333 281° West 407 468 36,000  Level Minneapolis Center
Thu 11:14:12 PM 45.0569 -94.8894 281° West 406 467 36,000  Level Minneapolis Center
Thu 11:15:13 PM 45.0769 -95.0458 280° West 407 468 36,000  Level Minneapolis Center
Thu 11:16:14 PM 45.0986 -95.2028 281° West 408 470 36,000  Level Minneapolis Center
Thu 11:17:16 PM 45.1200 -95.3594 281° West 408 470 36,000  Level Minneapolis Center
Thu 11:18:17 PM 45.1389 -95.5147 280° West 407 468 36,000 -49 Level Minneapolis Center
Thu 11:19:18 PM 45.1622 -95.7019 280° West 406 467 35,900  Descending Minneapolis Center
Thu 11:20:19 PM 45.1839 -95.8603 281° West 411 473 36,000 49 Climbing Minneapolis Center
Thu 11:21:20 PM 45.2033 -96.0203 280° West 416 479 36,000  Level Minneapolis Center
Thu 11:22:22 PM 45.2225 -96.1786 280° West 412 474 36,000  Level Minneapolis Center
Thu 11:23:23 PM 45.2422 -96.3381 280° West 413 475 36,000  Level Minneapolis Center
Thu 11:24:24 PM 45.2608 -96.4978 279° West 414 476 36,000  Level Minneapolis Center
Thu 11:25:25 PM 45.2794 -96.6564 280° West 411 473 36,000  Level Minneapolis Center
Thu 11:26:26 PM 45.2983 -96.8156 280° West 412 474 36,000  Level Minneapolis Center
Thu 11:27:28 PM 45.3211 -97.0050 280° West 408 470 36,000  Level Minneapolis Center
Thu 11:28:29 PM 45.3394 -97.1636 279° West 409 471 36,000  Level Minneapolis Center
Thu 11:29:30 PM 45.3567 -97.3211 279° West 407 468 36,000  Level Minneapolis Center
Thu 11:30:31 PM 45.3747 -97.4797 279° West 408 470 36,000  Level Minneapolis Center
Thu 11:31:32 PM 45.3919 -97.6375 279° West 407 468 36,000  Level Minneapolis Center
Thu 11:32:33 PM 45.4086 -97.7958 279° West 408 470 36,000  Level Minneapolis Center
Thu 11:33:34 PM 45.4258 -97.9542 279° West 407 468 36,000  Level Minneapolis Center
Thu 11:34:35 PM 45.4428 -98.1275 278° West 406 467 36,000  Level Minneapolis Center
Thu 11:35:36 PM 45.4603 -98.2872 279° West 408 470 36,000  Level Minneapolis Center
Thu 11:36:49 PM 45.4764 -98.4447 278° West 405 466 36,000  Level Minneapolis Center
Thu 11:37:50 PM 45.4964 -98.6342 279° West 404 465 36,000  Level Minneapolis Center
Thu 11:38:51 PM 45.5114 -98.7911 278° West 402 463 36,000  Level Minneapolis Center
Thu 11:39:52 PM 45.5264 -98.9472 278° West 400 460 36,000  Level Minneapolis Center
Thu 11:40:52 PM 45.5417 -99.1031 278° West 399 459 36,000  Level Minneapolis Center
Thu 11:41:53 PM 45.5572 -99.2597 278° West 400 460 36,000  Level Minneapolis Center
Thu 11:42:54 PM 45.5711 -99.4133 277° West 397 457 36,000  Level Minneapolis Center
Thu 11:43:55 PM 45.5881 -99.5986 278° West 395 455 36,000  Level Minneapolis Center
Thu 11:44:56 PM 45.6017 -99.7531 277° West 395 455 36,000  Level Minneapolis Center
Thu 11:45:57 PM 45.6153 -99.9072 277° West 395 455 36,000  Level Minneapolis Center
Thu 11:46:58 PM 45.6281 -100.0608 277° West 393 452 36,000  Level Minneapolis Center
Thu 11:48:11 PM 45.6439 -100.2453 277° West 391 450 36,000  Level Minneapolis Center
Thu 11:49:12 PM 45.6575 -100.4028 277° West 401 461 36,000  Level Minneapolis Center
Thu 11:50:13 PM 45.6714 -100.5594 277° West 401 461 36,000  Level Minneapolis Center
Thu 11:51:14 PM 45.6839 -100.7139 277° West 395 455 36,000  Level Minneapolis Center
Thu 11:52:26 PM 45.6958 -100.8692 276° West 394 453 36,000  Level Minneapolis Center
Thu 11:53:27 PM 45.7100 -101.0561 276° West 395 455 36,000  Level Minneapolis Center
Thu 11:54:28 PM 45.7225 -101.2142 277° West 399 459 36,000  Level Minneapolis Center
Thu 11:55:29 PM 45.7353 -101.3697 277° West 397 457 36,000  Level Minneapolis Center
Thu 11:56:30 PM 45.7492 -101.5589 276° West 399 459 36,000  Level Minneapolis Center
Thu 11:57:31 PM 45.7617 -101.7156 277° West 397 457 36,000  Level Minneapolis Center
Thu 11:58:31 PM 45.7725 -101.8736 276° West 399 459 36,000  Level Minneapolis Center
Thu 11:59:32 PM 45.7836 -102.0289 276° West 396 456 36,000  Level Minneapolis Center
Fri 12:00:33 AM 45.7950 -102.1864 276° West 398 458 36,000  Level Minneapolis Center
Fri 12:01:46 AM 45.8069 -102.3772 275° West 401 461 36,000  Level Minneapolis Center
Fri 12:02:59 AM 45.8197 -102.5653 276° West 397 457 36,000 -45 Level Minneapolis Center
Fri 12:04:00 AM 45.8297 -102.7300 275° West 395 455 35,900 -50 Descending Minneapolis Center
Fri 12:05:00 AM 45.8400 -102.8836 276° West 390 449 35,900  Level Minneapolis Center
Fri 12:06:01 AM 45.8489 -103.0403 275° West 392 451 35,900  Level Minneapolis Center
Fri 12:06:45 AM 45.8525 -103.1314 273° West 392 451 35,900  Level Salt Lake Center
Fri 12:07:46 AM 45.8619 -103.2856 275° West 391 450 35,900  Level Salt Lake Center
Fri 12:08:48 AM 45.8708 -103.4400 275° West 389 448 35,900  Level Salt Lake Center
Fri 12:09:49 AM 45.8808 -103.6258 274° West 390 449 35,900  Level Salt Lake Center
Fri 12:10:50 AM 45.8894 -103.7814 275° West 390 449 35,900  Level Salt Lake Center
Fri 12:11:51 AM 45.8972 -103.9392 274° West 394 453 35,900 49 Level Salt Lake Center
Fri 12:12:53 AM 45.9053 -104.0958 274° West 395 455 36,000 49 Climbing Salt Lake Center
Fri 12:13:54 AM 45.9128 -104.2531 274° West 395 455 36,000 -49 Level Salt Lake Center
Fri 12:14:55 AM 45.9206 -104.4094 274° West 394 453 35,900  Descending Salt Lake Center
Fri 12:15:56 AM 45.9275 -104.5733 274° West 391 450 36,000 49 Climbing Salt Lake Center
Fri 12:16:57 AM 45.9342 -104.7239 274° West 393 452 36,000  Level Salt Lake Center
Fri 12:17:58 AM 45.9425 -104.8997 274° West 395 455 36,000  Level Salt Lake Center
Fri 12:19:00 AM 45.9481 -105.0489 273° West 393 452 36,000  Level Salt Lake Center
Fri 12:20:01 AM 45.9539 -105.2219 273° West 391 450 36,000  Level Salt Lake Center
Fri 12:21:02 AM 45.9606 -105.3694 274° West 388 447 36,000  Level Salt Lake Center
Fri 12:22:03 AM 45.9658 -105.5181 273° West 389 448 36,000  Level Salt Lake Center
Fri 12:23:04 AM 45.9711 -105.6906 273° West 389 448 36,000  Level Salt Lake Center
Fri 12:24:06 AM 45.9772 -105.8417 273° West 392 451 36,000  Level Salt Lake Center
Fri 12:25:07 AM 45.9839 -106.0167 273° West 394 453 36,000  Level Salt Lake Center
Fri 12:26:08 AM 45.9886 -106.1658 273° West 392 451 36,000  Level Salt Lake Center
Fri 12:27:09 AM 45.9947 -106.3156 273° West 393 452 36,000  Level Salt Lake Center
Fri 12:28:10 AM 46.0011 -106.4911 273° West 394 453 36,000  Level Salt Lake Center
Fri 12:29:11 AM 46.0064 -106.6408 273° West 393 452 36,000  Level Salt Lake Center
Fri 12:30:12 AM 46.0111 -106.7897 273° West 391 450 36,000  Level Salt Lake Center
Fri 12:31:14 AM 46.0161 -106.9614 272° West 389 448 36,000  Level Salt Lake Center
Fri 12:32:15 AM 46.0200 -107.1092 272° West 386 444 36,000  Level Salt Lake Center
Fri 12:33:16 AM 46.0239 -107.2808 272° West 380 437 36,000  Level Salt Lake Center
Fri 12:34:17 AM 46.0269 -107.4278 272° West 382 440 36,000 -49 Level Salt Lake Center
Fri 12:35:18 AM 46.0300 -107.5706 272° West 375 432 35,900  Descending Salt Lake Center
Fri 12:36:19 AM 46.0342 -107.7411 272° West 382 440 36,000 49 Climbing Salt Lake Center
Fri 12:37:20 AM 46.0369 -107.8858 272° West 379 436 36,000  Level Salt Lake Center
Fri 12:38:21 AM 46.0394 -108.0322 271° West 383 441 36,000  Level Salt Lake Center
Fri 12:39:22 AM 46.0417 -108.2056 271° West 388 447 36,000  Level Salt Lake Center
Fri 12:40:23 AM 46.0447 -108.3531 272° West 389 448 36,000  Level Salt Lake Center
Fri 12:41:24 AM 46.0469 -108.5256 271° West 386 444 36,000  Level Salt Lake Center
Fri 12:42:25 AM 46.0489 -108.6744 271° West 389 448 36,000  Level Salt Lake Center
Fri 12:43:26 AM 46.0497 -108.8217 271° West 386 444 36,000  Level Salt Lake Center
Fri 12:44:27 AM 46.0514 -108.9936 271° West 385 443 36,000  Level Salt Lake Center
Fri 12:45:28 AM 46.0528 -109.1406 271° West 385 443 36,000  Level Salt Lake Center
Fri 12:46:29 AM 46.0536 -109.2889 271° West 387 445 36,000  Level Salt Lake Center
Fri 12:47:30 AM 46.0547 -109.4625 271° West 391 450 36,000  Level Salt Lake Center
Fri 12:48:31 AM 46.0556 -109.6094 271° West 386 444 36,000  Level Salt Lake Center
Fri 12:49:32 AM 46.0558 -109.7836 270° West 389 448 36,000  Level Salt Lake Center
Fri 12:50:33 AM 46.0539 -109.9325 269° West 391 450 36,000  Level Salt Lake Center
Fri 12:51:34 AM 46.0547 -110.0811 271° West 388 447 36,000  Level Salt Lake Center
Fri 12:52:35 AM 46.0539 -110.2536 270° West 386 444 36,000  Level Salt Lake Center
Fri 12:53:36 AM 46.0544 -110.3997 270° West 384 442 36,000  Level Salt Lake Center
Fri 12:54:37 AM 46.0536 -110.5467 270° West 383 441 36,000  Level Salt Lake Center
Fri 12:55:38 AM 46.0528 -110.7072 270° West 380 437 36,000  Level Salt Lake Center
Fri 12:56:38 AM 46.0517 -110.8592 269° West 382 440 36,000  Level Salt Lake Center
Fri 12:57:39 AM 46.0500 -111.0108 269° West 382 440 36,000  Level Salt Lake Center
Fri 12:58:40 AM 46.0478 -111.1622 269° West 383 441 36,000  Level Salt Lake Center
Fri 12:59:41 AM 46.0464 -111.3136 269° West 383 441 36,000  Level Salt Lake Center
Fri 01:00:42 AM 46.0433 -111.4961 269° West 383 441 36,000  Level Salt Lake Center
Fri 01:01:43 AM 46.0406 -111.6469 269° West 381 438 36,000  Level Salt Lake Center
Fri 01:02:44 AM 46.0383 -111.7992 269° West 382 440 36,000  Level Salt Lake Center
Fri 01:03:45 AM 46.0358 -111.9500 269° West 379 436 36,000  Level Salt Lake Center
Fri 01:04:46 AM 46.0325 -112.1036 268° West 382 440 36,000  Level Salt Lake Center
Fri 01:05:47 AM 46.0297 -112.2553 269° West 382 440 36,000  Level Salt Lake Center
Fri 01:06:48 AM 46.0258 -112.4067 268° West 380 437 36,000  Level Salt Lake Center
Fri 01:07:48 AM 46.0233 -112.5586 269° West 380 437 36,000  Level Salt Lake Center
Fri 01:08:49 AM 46.0197 -112.7125 268° West 385 443 36,000  Level Salt Lake Center
Fri 01:09:50 AM 46.0153 -112.8664 268° West 384 442 36,000  Level Salt Lake Center
Fri 01:10:51 AM 46.0111 -113.0197 268° West 385 443 36,000  Level Salt Lake Center
Fri 01:11:52 AM 46.0072 -113.1769 268° West 391 450 36,000  Level Salt Lake Center
Fri 01:12:53 AM 46.0036 -113.3375 268° West 400 460 36,000  Level Salt Lake Center
Fri 01:13:53 AM 45.9992 -113.4989 268° West 405 466 36,000 -50 Level Salt Lake Center
Fri 01:14:54 AM 45.9928 -113.6647 267° West 408 470 35,900 -49 Descending Salt Lake Center
Fri 01:15:55 AM 45.9881 -113.8269 268° West 408 470 35,900 49 Level Salt Lake Center
Fri 01:16:56 AM 45.9814 -113.9936 267° West 416 479 36,000 49 Climbing Salt Lake Center
Fri 01:17:57 AM 45.9764 -114.1592 268° West 416 479 36,000 -49 Level Salt Lake Center
Fri 01:18:58 AM 45.9681 -114.3578 267° West 415 478 35,900  Descending Salt Lake Center
Fri 01:19:58 AM 45.9631 -114.5125 267° West 419 482 36,000 50 Climbing Salt Lake Center
Fri 01:20:59 AM 45.9553 -114.6975 267° West 417 480 36,000 -62 Level Salt Lake Center
Fri 01:21:35 AM 45.9517 -114.7692 266° West 417 480 35,900 -62 Descending Seattle Center
Fri 01:22:36 AM 45.9442 -114.9358 266° West 419 482 35,900 70 Level Seattle Center
Fri 01:23:01 AM 45.9414 -115.0169 267° West 421 484 36,000 71 Climbing Salt Lake Center
Fri 01:24:01 AM 45.9328 -115.2058 266° West 424 488 36,000  Level Salt Lake Center
Fri 01:24:37 AM 45.9292 -115.2725 266° West 423 487 36,000  Level Seattle Center
Fri 01:25:38 AM 45.9208 -115.4433 266° West 426 490 36,000  Level Seattle Center
Fri 01:26:39 AM 45.9111 -115.6478 266° West 429 494 36,000 -50 Level Seattle Center
Fri 01:27:39 AM 45.9025 -115.8156 266° West 425 489 35,900 -50 Descending Seattle Center
Fri 01:28:40 AM 45.8939 -115.9847 266° West 424 488 35,900  Level Seattle Center
Fri 01:29:41 AM 45.8842 -116.1561 265° West 429 494 35,900 50 Level Seattle Center
Fri 01:30:41 AM 45.8744 -116.3286 265° West 431 496 36,000  Climbing Seattle Center
Fri 01:31:42 AM 45.8647 -116.5008 265° West 434 499 35,900 -50 Descending Seattle Center
Fri 01:32:42 AM 45.8553 -116.6722 266° West 433 498 35,900  Level Seattle Center
Fri 01:33:43 AM 45.8444 -116.8425 265° West 432 497 35,900 49 Level Seattle Center
Fri 01:34:44 AM 45.8347 -117.0122 265° West 430 495 36,000 50 Climbing Seattle Center
Fri 01:35:44 AM 45.8233 -117.1839 265° West 431 496 36,000 -50 Level Seattle Center
Fri 01:36:45 AM 45.8131 -117.3536 265° West 430 495 35,900 -50 Descending Seattle Center
Fri 01:37:45 AM 45.8003 -117.5239 264° West 430 495 35,900  Level Seattle Center
Fri 01:38:46 AM 45.7897 -117.6925 265° West 427 491 35,900 50 Level Seattle Center
Fri 01:39:46 AM 45.7775 -117.8622 264° West 429 494 36,000 50 Climbing Seattle Center
Fri 01:40:47 AM 45.7661 -118.0317 265° West 429 494 36,000 -50 Level Seattle Center
Fri 01:41:47 AM 45.7542 -118.2000 264° West 426 490 35,900 -50 Descending Seattle Center
Fri 01:42:48 AM 45.7417 -118.3689 264° West 426 490 35,900 49 Level Seattle Center
Fri 01:43:49 AM 45.7286 -118.5364 264° West 427 491 36,000 50 Climbing Seattle Center
Fri 01:44:49 AM 45.7164 -118.7014 264° West 427 491 36,000  Level Seattle Center
Fri 01:45:50 AM 45.7031 -118.8706 264° West 429 494 36,000  Level Seattle Center
Fri 01:46:50 AM 45.6842 -119.0728 262° West 431 496 36,000  Level Seattle Center
Fri 01:47:51 AM 45.6656 -119.2400 261° West 429 494 36,000  Level Seattle Center
Fri 01:48:51 AM 45.6461 -119.4089 261° West 432 497 36,000  Level Seattle Center
Fri 01:49:52 AM 45.6269 -119.5775 261° West 433 498 36,000  Level Seattle Center
Fri 01:50:52 AM 45.6067 -119.7469 260° West 436 502 36,000  Level Seattle Center
Fri 01:51:53 AM 45.5872 -119.9172 261° West 438 504 36,000 -99 Level Seattle Center
Fri 01:52:53 AM 45.5672 -120.0872 261° West 438 504 35,800 -1,091 Descending Seattle Center
Fri 01:53:54 AM 45.5561 -120.2594 265° West 438 504 33,800 -2,479 Descending Seattle Center
Fri 01:54:54 AM 45.5533 -120.4372 269° West 449 517 30,800 -2,876 Descending Seattle Center
Fri 01:55:55 AM 45.5486 -120.6147 268° West 453 521 28,000 -2,678 Descending Seattle Center
Fri 01:56:55 AM 45.5453 -120.7889 268° West 446 513 25,400 -2,529 Descending Seattle Center
Fri 01:57:56 AM 45.5400 -120.9592 268° West 436 502 22,900 -2,479 Descending Seattle Center
Fri 01:58:56 AM 45.5361 -121.1256 268° West 424 488 20,400 -2,508 Descending Seattle Center
Fri 01:59:58 AM 45.5311 -121.2867 268° West 414 476 17,800 -2,706 Descending Seattle Center
Fri 02:00:38 AM 45.5294 -121.4161 269° West 401 461 15,800 -2,459 Descending Seattle Center
Fri 02:00:59 AM 45.5264 -121.4461 262° West 408 470 15,300 -2,400 Descending Seattle Center
Fri 02:01:38 AM 45.5250 -121.5697 269° West 388 447 13,400 -2,800 Descending Seattle Center
Fri 02:01:59 AM 45.5208 -121.6261 264° West 382 440 12,500 -2,262 Descending Seattle Center
Fri 02:02:39 AM 45.5192 -121.7175 269° West 370 426 11,100 -1,700 Descending Seattle Center
Fri 02:02:59 AM 45.5161 -121.7722 265° West 373 429 10,800 -787 Descending Seattle Center
Fri 02:03:40 AM 45.5167 -121.8608 271° West 323 372 10,300 -689 Descending Seattle Center
Fri 02:04:00 AM 45.5144 -121.8978 265° West 326 375 10,100 -2,273 Descending Seattle Center
Fri 02:04:46 AM 45.5158 -121.9819 271° West 271 312 7,800 -2,614 Descending Seattle Center
Fri 02:05:41 AM 45.5147 -122.0811 269° West 268 308 5,700 -1,840 Descending Seattle Center
Fri 02:06:01 AM 45.5150 -122.1103 271° West 275 316 5,500 -200 Descending Seattle Center
Fri 02:06:41 AM 45.5128 -122.1775 267° West 236 272 5,500 -300 Level Seattle Center
Fri 02:07:01 AM 45.5153 -122.2014 279° West 247 284 5,200 -984 Descending Seattle Center
Fri 02:07:42 AM 45.5125 -122.2611 266° West 212 244 4,500 -1,082 Descending Seattle Center
Fri 02:08:02 AM 45.5133 -122.2858 273° West 223 257 4,100 -764 Descending Seattle Center
Fri 02:08:37 AM 45.5131 -122.3381 270° West 205 236 3,800 -800 Descending Seattle Center
Fri 02:09:02 AM 45.5153 -122.3661 276° West 209 241 3,300 -1,100 Descending Seattle Center
Fri 02:09:37 AM 45.5269 -122.4156 289° West 208 239 2,700 -1,000 Descending Seattle Center
Fri 02:10:02 AM 45.5342 -122.4367 296° West 195 224 2,300 -1,075 Descending Seattle Center
Fri 02:10:44 AM 45.5514 -122.4828 298° West 152 175 1,500 -984 Descending Seattle Center
Fri 02:11:03 AM 45.5564 -122.4953 300° West 178 205 1,300 -632 Descending Seattle Center

Login

Don't have an account? Register now (free) for customized features, flight alerts, and more!